Time;durP1;ratioP1;P1;durP2;ratioP2;P2;SDS_P1;SDS_P2;PMS_P1;PMS_P2;Temp;Humidity;BMP_temperature;BMP_pressure;BME280_temperature;BME280_humidity;BME280_pressure;Samples;Min_cycle;Max_cycle;Signal;HPM_P1;HPM_P2
2023/10/15 00:01:32;;;;;;;;;;;;;;;20.87;39.74;100143.17;105538;1299;67007;-92
2023/10/15 00:03:57;;;;;;;;;;;;;;;20.87;39.82;100141.17;105638;1301;83306;-89
2023/10/15 00:06:23;;;;;;;;;;;;;;;20.87;39.92;100136.21;105756;1299;66298;-89
2023/10/15 00:08:50;;;;;;;;;;;;;;;20.86;39.80;100127.16;105660;1297;66434;-89
2023/10/15 00:11:18;;;;;;;;;;;;;;;20.86;39.80;100126.50;105673;1299;66530;-89
2023/10/15 00:13:50;;;;;;;;;;;;;;;20.86;39.80;100123.54;105523;1297;67011;-89
2023/10/15 00:19:33;;;;;;;;;;;;;;;20.86;39.70;100122.86;105619;1300;71442;-89
2023/10/15 00:22:00;;;;;;;;;;;;;;;20.86;39.81;100122.50;105550;1300;67015;-89
2023/10/15 00:24:32;;;;;;;;;;;;;;;20.86;39.84;100118.52;105666;1295;67050;-89
2023/10/15 00:26:58;;;;;;;;;;;;;;;20.85;39.81;100119.29;105687;1298;74413;-89
2023/10/15 00:29:25;;;;;;;;;;;;;;;20.85;39.82;100118.08;105706;1298;67036;-89
2023/10/15 00:31:51;;;;;;;;;;;;;;;20.85;40.00;100118.46;105565;1294;66927;-88
2023/10/15 00:39:58;;;;;;;;;;;;;;;20.85;39.89;100111.23;105467;1302;74576;-88
2023/10/15 00:42:24;;;;;;;;;;;;;;;20.84;40.09;100112.60;105428;1300;83389;-89
2023/10/15 00:44:50;;;;;;;;;;;;;;;20.85;40.04;100117.40;105416;1300;67748;-90
2023/10/15 00:47:16;;;;;;;;;;;;;;;20.84;40.00;100118.23;105438;1300;67221;-89
2023/10/15 00:49:42;;;;;;;;;;;;;;;20.84;39.92;100115.21;105377;1300;66344;-90
2023/10/15 00:54:45;;;;;;;;;;;;;;;20.84;39.89;100106.77;105521;1299;81546;-89
2023/10/15 00:57:26;;;;;;;;;;;;;;;20.84;39.87;100105.34;105464;1296;72593;-88
2023/10/15 00:59:54;;;;;;;;;;;;;;;20.83;39.98;100102.74;105540;1297;66949;-89
2023/10/15 01:02:28;;;;;;;;;;;;;;;20.83;40.03;100102.73;105559;1299;66908;-89
2023/10/15 01:04:58;;;;;;;;;;;;;;;20.83;40.08;100099.05;105525;1299;75265;-88
2023/10/15 01:07:33;;;;;;;;;;;;;;;20.82;39.94;100095.48;105507;1294;82287;-88
2023/10/15 01:09:59;;;;;;;;;;;;;;;20.83;39.93;100090.57;105525;1298;72529;-88
2023/10/15 01:12:30;;;;;;;;;;;;;;;20.82;40.11;100087.61;105618;1300;67822;-88
2023/10/15 01:14:58;;;;;;;;;;;;;;;20.82;40.11;100086.48;105595;1296;67408;-88
2023/10/15 01:17:26;;;;;;;;;;;;;;;20.82;40.16;100085.77;105500;1300;74630;-89
2023/10/15 01:19:52;;;;;;;;;;;;;;;20.82;40.07;100086.39;105563;1296;83813;-89
2023/10/15 01:22:22;;;;;;;;;;;;;;;20.82;40.02;100086.18;105578;1299;67115;-90
2023/10/15 01:24:50;;;;;;;;;;;;;;;20.82;39.92;100085.02;105564;1300;66201;-89
2023/10/15 01:27:22;;;;;;;;;;;;;;;20.82;39.99;100087.37;105584;1300;66860;-89
2023/10/15 01:29:48;;;;;;;;;;;;;;;20.82;40.13;100090.33;105454;1299;74333;-89
2023/10/15 01:32:16;;;;;;;;;;;;;;;20.81;40.25;100083.27;105512;1296;67004;-89
2023/10/15 01:34:45;;;;;;;;;;;;;;;20.81;40.06;100084.39;105538;1297;72339;-89
2023/10/15 01:39:48;;;;;;;;;;;;;;;20.81;40.14;100081.08;105659;1299;66201;-89
2023/10/15 01:45:09;;;;;;;;;;;;;;;20.80;39.97;100079.50;105690;1300;82042;-89
2023/10/15 01:47:37;;;;;;;;;;;;;;;20.80;40.21;100083.59;105582;1300;72733;-88
2023/10/15 01:50:08;;;;;;;;;;;;;;;20.80;40.21;100087.07;105581;1297;68356;-89
2023/10/15 01:52:39;;;;;;;;;;;;;;;20.80;40.15;100079.86;105726;1297;67010;-89
2023/10/15 01:55:08;;;;;;;;;;;;;;;20.80;40.15;100073.41;105590;1299;74344;-93
2023/10/15 01:57:36;;;;;;;;;;;;;;;20.80;40.29;100072.65;105557;1299;83305;-88
2023/10/15 02:00:14;;;;;;;;;;;;;;;20.80;40.14;100070.25;105497;1299;72282;-88
2023/10/15 02:02:47;;;;;;;;;;;;;;;20.80;40.11;100073.78;105597;1292;66428;-89
2023/10/15 02:05:40;;;;;;;;;;;;;;;20.79;40.22;100070.66;105653;1299;66922;-89
2023/10/15 02:08:08;;;;;;;;;;;;;;;20.79;40.09;100068.25;105592;1298;73766;-89
2023/10/15 02:10:38;;;;;;;;;;;;;;;20.79;40.17;100060.74;105632;1299;82144;-89
2023/10/15 02:13:10;;;;;;;;;;;;;;;20.79;40.25;100062.02;105627;1294;73977;-86
2023/10/15 02:15:40;;;;;;;;;;;;;;;20.79;40.37;100063.29;105408;1300;67099;-89
2023/10/15 02:18:08;;;;;;;;;;;;;;;20.79;40.20;100065.34;105589;1297;66906;-88
2023/10/15 02:20:44;;;;;;;;;;;;;;;20.78;40.28;100063.60;105816;1299;74211;-88
2023/10/15 02:23:11;;;;;;;;;;;;;;;20.78;40.30;100061.51;105913;1297;83276;-88
2023/10/15 02:25:45;;;;;;;;;;;;;;;20.78;40.30;100058.64;105822;1298;66261;-89
2023/10/15 02:28:11;;;;;;;;;;;;;;;20.78;40.18;100059.77;105939;1291;66686;-88
2023/10/15 02:30:40;;;;;;;;;;;;;;;20.77;40.33;100057.73;105840;1299;66763;-88
2023/10/15 02:33:06;;;;;;;;;;;;;;;20.77;40.29;100063.50;105626;1299;73329;-88
2023/10/15 02:38:09;;;;;;;;;;;;;;;20.76;40.20;100066.46;105620;1296;71983;-88
2023/10/15 02:43:20;;;;;;;;;;;;;;;20.77;40.24;100058.80;105555;1294;66233;-89
2023/10/15 02:45:47;;;;;;;;;;;;;;;20.76;40.27;100055.11;105496;1300;67597;-88
2023/10/15 02:48:19;;;;;;;;;;;;;;;20.76;40.35;100053.98;105456;1299;82389;-89
2023/10/15 02:50:58;;;;;;;;;;;;;;;20.76;40.38;100048.06;105531;1299;72521;-89
2023/10/15 02:53:33;;;;;;;;;;;;;;;20.76;40.29;100049.38;105315;1302;67066;-89
2023/10/15 02:55:58;;;;;;;;;;;;;;;20.76;40.31;100048.72;105441;1303;66302;-88
2023/10/15 02:58:27;;;;;;;;;;;;;;;20.76;40.27;100047.03;105433;1302;66265;-89
2023/10/15 03:00:53;;;;;;;;;;;;;;;20.75;40.27;100049.17;105416;1303;82243;-89
2023/10/15 03:03:26;;;;;;;;;;;;;;;20.75;40.34;100042.98;105405;1302;72529;-89
2023/10/15 03:05:57;;;;;;;;;;;;;;;20.76;40.38;100044.83;105607;1298;67044;-89
2023/10/15 03:08:23;;;;;;;;;;;;;;;20.75;40.33;100046.20;105511;1300;66403;-89
2023/10/15 03:10:55;;;;;;;;;;;;;;;20.75;40.40;100045.48;105644;1299;67633;-89
2023/10/15 03:13:21;;;;;;;;;;;;;;;20.75;40.33;100042.06;105622;1299;83275;-89
2023/10/15 03:15:49;;;;;;;;;;;;;;;20.75;40.42;100042.78;105563;1299;66983;-89
2023/10/15 03:18:21;;;;;;;;;;;;;;;20.74;40.49;100037.52;105773;1300;67171;-89
2023/10/15 03:20:49;;;;;;;;;;;;;;;20.74;40.49;100039.21;105740;1296;66227;-89
2023/10/15 03:23:17;;;;;;;;;;;;;;;20.74;40.39;100040.34;105879;1300;74317;-89
2023/10/15 03:25:42;;;;;;;;;;;;;;;20.73;40.42;100044.23;105818;1300;67145;-88
2023/10/15 03:28:11;;;;;;;;;;;;;;;20.74;40.45;100045.34;105741;1297;66660;-89
2023/10/15 03:33:19;;;;;;;;;;;;;;;20.73;40.54;100035.33;105416;1302;67589;-89
2023/10/15 03:35:54;;;;;;;;;;;;;;;20.73;40.55;100032.30;105665;1299;73644;-88
2023/10/15 03:38:23;;;;;;;;;;;;;;;20.73;40.56;100026.27;105594;1300;82968;-89
2023/10/15 03:40:50;;;;;;;;;;;;;;;20.73;40.58;100025.45;105640;1296;72489;-89
2023/10/15 03:43:20;;;;;;;;;;;;;;;20.72;40.47;100024.23;105525;1298;67335;-88
2023/10/15 03:45:54;;;;;;;;;;;;;;;20.72;40.44;100022.19;105498;1294;67283;31
2023/10/15 03:48:29;;;;;;;;;;;;;;;20.72;40.44;100020.80;105623;1299;74326;-89
2023/10/15 03:51:05;;;;;;;;;;;;;;;20.72;40.59;100020.65;105583;1297;80066;-90
2023/10/15 03:53:32;;;;;;;;;;;;;;;20.72;40.58;100020.35;105651;1296;72385;-90
2023/10/15 03:55:58;;;;;;;;;;;;;;;20.71;40.60;100018.91;105484;1299;66380;-89
2023/10/15 03:58:27;;;;;;;;;;;;;;;20.71;40.42;100014.58;105528;1299;66799;-88
2023/10/15 04:01:16;;;;;;;;;;;;;;;20.71;40.44;100015.80;105560;1293;75700;-88
2023/10/15 04:03:48;;;;;;;;;;;;;;;20.71;40.49;100018.20;105681;1300;82337;31
2023/10/15 04:06:14;;;;;;;;;;;;;;;20.71;40.65;100013.09;105485;1300;72548;-89
2023/10/15 04:08:55;;;;;;;;;;;;;;;20.71;40.53;100008.90;105558;1300;66582;-90
2023/10/15 04:11:29;;;;;;;;;;;;;;;20.70;40.66;99998.70;105542;1299;67716;-90
2023/10/15 04:13:57;;;;;;;;;;;;;;;20.70;40.77;99990.10;105601;1296;74343;-89
2023/10/15 04:16:23;;;;;;;;;;;;;;;20.70;40.56;99984.58;105640;1299;83006;-89
2023/10/15 04:18:48;;;;;;;;;;;;;;;20.70;40.70;99983.88;105621;1291;67502;-89
2023/10/15 04:21:16;;;;;;;;;;;;;;;20.70;40.61;99983.72;105829;1298;66968;-89
2023/10/15 04:23:49;;;;;;;;;;;;;;;20.69;40.73;99985.45;105655;1297;67021;-89
2023/10/15 04:26:14;;;;;;;;;;;;;;;20.69;40.67;99985.61;105610;1296;74742;-89
2023/10/15 04:28:43;;;;;;;;;;;;;;;20.69;40.63;99984.85;105618;1296;67067;-88
2023/10/15 04:31:11;;;;;;;;;;;;;;;20.69;40.50;99978.71;105644;1297;72423;-89
2023/10/15 04:33:44;;;;;;;;;;;;;;;20.69;40.71;99979.79;105632;1294;67919;-88
2023/10/15 04:36:10;;;;;;;;;;;;;;;20.68;40.55;99979.59;105531;1299;67178;-89
2023/10/15 04:38:36;;;;;;;;;;;;;;;20.68;40.63;99979.02;105620;1297;67442;-89
2023/10/15 04:41:04;;;;;;;;;;;;;;;20.67;40.39;99979.39;105673;1298;82038;-89
2023/10/15 04:43:30;;;;;;;;;;;;;;;20.67;40.41;99976.27;105455;1299;66292;-88
2023/10/15 04:45:56;;;;;;;;;;;;;;;20.67;40.62;99975.40;105643;1297;66323;-88
2023/10/15 04:50:50;;;;;;;;;;;;;;;20.67;40.57;99981.02;105450;1299;66857;-88
2023/10/15 04:53:23;;;;;;;;;;;;;;;20.67;40.54;99974.64;105548;1300;66912;-88
2023/10/15 04:55:49;;;;;;;;;;;;;;;20.67;40.70;99978.58;105535;1299;72596;-89
2023/10/15 04:58:15;;;;;;;;;;;;;;;20.66;40.37;99972.77;105631;1295;67153;-89
2023/10/15 05:00:40;;;;;;;;;;;;;;;20.66;40.56;99977.96;105555;1294;68515;-89
2023/10/15 05:03:06;;;;;;;;;;;;;;;20.66;40.57;99980.94;105635;1298;67777;-89
2023/10/15 05:05:31;;;;;;;;;;;;;;;20.66;40.46;99978.27;105642;1297;66376;-89
2023/10/15 05:07:59;;;;;;;;;;;;;;;20.66;40.45;99976.39;105464;1299;66648;-89
2023/10/15 05:10:32;;;;;;;;;;;;;;;20.66;40.66;99981.44;105621;1297;67228;-89
2023/10/15 05:12:59;;;;;;;;;;;;;;;20.66;40.41;99986.91;105453;1298;74217;-89
2023/10/15 05:15:27;;;;;;;;;;;;;;;20.66;40.50;99987.06;105627;1298;81327;-90
2023/10/15 05:17:52;;;;;;;;;;;;;;;20.66;40.43;99990.14;105550;1301;72689;-88
2023/10/15 05:20:20;;;;;;;;;;;;;;;20.65;40.46;99985.44;105625;1300;66934;-90
2023/10/15 05:22:49;;;;;;;;;;;;;;;20.65;40.40;99983.02;105505;1299;67116;-90
2023/10/15 05:25:17;;;;;;;;;;;;;;;20.66;40.53;99982.98;105718;1300;75667;-90
2023/10/15 05:27:52;;;;;;;;;;;;;;;20.66;40.49;99984.21;105595;1301;82663;-90
2023/10/15 05:30:24;;;;;;;;;;;;;;;20.65;40.45;99985.88;105602;1298;72275;-93
2023/10/15 05:32:51;;;;;;;;;;;;;;;20.65;40.48;99985.17;105548;1300;67620;-90
2023/10/15 05:35:19;;;;;;;;;;;;;;;20.65;40.35;99994.43;105655;1299;67021;-89
2023/10/15 05:37:45;;;;;;;;;;;;;;;20.65;40.50;99996.00;105439;1297;75174;-89
2023/10/15 05:40:15;;;;;;;;;;;;;;;20.66;40.52;99996.32;105570;1299;67122;-89
2023/10/15 05:42:41;;;;;;;;;;;;;;;20.67;40.52;99992.93;105516;1299;71535;-88
2023/10/15 05:48:18;;;;;;;;;;;;;;;20.68;40.52;99997.84;105510;1300;66276;-88
2023/10/15 05:50:51;;;;;;;;;;;;;;;20.69;40.49;100004.33;105201;1300;502244;-88
2023/10/15 05:53:17;;;;;;;;;;;;;;;20.70;40.57;99998.70;105546;1300;66940;-89
2023/10/15 05:55:43;;;;;;;;;;;;;;;20.71;40.55;99999.20;105609;1297;67072;-88
2023/10/15 05:58:10;;;;;;;;;;;;;;;20.72;40.46;100003.02;105496;1299;66741;-89
2023/10/15 06:00:39;;;;;;;;;;;;;;;20.73;40.37;100002.25;105508;1298;67141;-88
2023/10/15 06:08:45;;;;;;;;;;;;;;;20.76;40.24;100002.95;105549;1300;72500;-88
2023/10/15 06:11:12;;;;;;;;;;;;;;;20.76;40.35;100002.05;105495;1300;67143;-89
2023/10/15 06:13:38;;;;;;;;;;;;;;;20.76;40.16;100005.88;105620;1295;67144;-89
2023/10/15 06:16:04;;;;;;;;;;;;;;;20.77;40.25;100008.86;105593;1297;67093;-89
2023/10/15 06:18:33;;;;;;;;;;;;;;;20.77;40.47;100004.95;105603;1294;66688;-88
2023/10/15 06:23:41;;;;;;;;;;;;;;;20.79;40.41;100007.15;105504;1298;67854;-89
2023/10/15 06:26:07;;;;;;;;;;;;;;;20.80;40.18;100006.73;105511;1299;66417;-88
2023/10/15 06:28:33;;;;;;;;;;;;;;;20.81;40.36;100006.63;105612;1296;66998;-89
2023/10/15 06:30:59;;;;;;;;;;;;;;;20.82;40.48;100008.52;105578;1297;68364;-89
2023/10/15 06:33:25;;;;;;;;;;;;;;;20.83;40.42;100002.98;105570;1299;66971;-90
2023/10/15 06:35:52;;;;;;;;;;;;;;;20.83;40.39;100007.12;105631;1299;66941;-89
2023/10/15 06:38:18;;;;;;;;;;;;;;;20.84;40.22;100008.95;105641;1300;67014;-89
2023/10/15 06:40:43;;;;;;;;;;;;;;;20.85;40.23;100006.70;105575;1296;67390;-89
2023/10/15 06:43:09;;;;;;;;;;;;;;;20.86;40.25;100012.02;105552;1300;73486;-90
2023/10/15 06:45:34;;;;;;;;;;;;;;;20.88;40.36;100010.31;105644;1300;66947;-90
2023/10/15 06:50:36;;;;;;;;;;;;;;;20.90;40.36;100001.45;105412;1300;75311;-90
2023/10/15 06:53:05;;;;;;;;;;;;;;;20.91;40.36;99999.34;105597;1299;67065;-89
2023/10/15 06:55:31;;;;;;;;;;;;;;;20.93;40.22;99996.95;105561;1296;72486;-89
2023/10/15 06:57:57;;;;;;;;;;;;;;;20.93;40.38;99998.32;105500;1296;68128;-89
2023/10/15 07:00:27;;;;;;;;;;;;;;;20.94;40.18;99992.06;105598;1294;67418;-88
2023/10/15 07:03:05;;;;;;;;;;;;;;;20.96;40.21;99988.06;105617;1300;74315;-88
2023/10/15 07:05:30;;;;;;;;;;;;;;;20.97;40.20;99981.15;105442;1300;82022;-89
2023/10/15 07:07:58;;;;;;;;;;;;;;;20.97;40.21;99978.90;105564;1297;67727;-89
2023/10/15 07:10:24;;;;;;;;;;;;;;;20.98;40.24;99978.32;105516;1299;66477;-89
2023/10/15 07:13:02;;;;;;;;;;;;;;;;;;;;;
2023/10/15 07:15:30;;;;;;;;;;;;;;;20.99;40.33;99977.85;105411;1300;73500;-89
2023/10/15 07:17:56;;;;;;;;;;;;;;;20.98;40.29;99969.02;105439;1300;67575;-89
2023/10/15 07:20:24;;;;;;;;;;;;;;;20.98;40.30;99968.03;105430;1300;66882;-89
2023/10/15 07:22:50;;;;;;;;;;;;;;;20.98;40.30;99968.74;105572;1300;66290;-89
2023/10/15 07:25:16;;;;;;;;;;;;;;;20.98;40.37;99970.84;105600;1300;66506;-89
2023/10/15 07:27:45;;;;;;;;;;;;;;;20.98;40.31;99968.90;105575;1303;66591;-89
2023/10/15 07:30:12;;;;;;;;;;;;;;;20.98;40.18;99967.98;105566;1300;82096;-89
2023/10/15 07:32:37;;;;;;;;;;;;;;;20.98;40.25;99972.34;105449;1302;66925;-89
2023/10/15 07:35:03;;;;;;;;;;;;;;;20.97;40.19;99975.15;105478;1300;67026;-89
2023/10/15 07:37:28;;;;;;;;;;;;;;;20.97;40.38;99979.35;105488;1302;67423;-89
2023/10/15 07:39:54;;;;;;;;;;;;;;;20.97;40.35;99972.04;105527;1300;66960;-90
2023/10/15 07:42:19;;;;;;;;;;;;;;;20.97;40.30;99969.48;105526;1300;66453;-87
2023/10/15 07:44:45;;;;;;;;;;;;;;;20.97;40.30;99970.60;105428;1300;66995;-88
2023/10/15 07:47:11;;;;;;;;;;;;;;;20.97;40.37;99971.38;105489;1300;66995;-89
2023/10/15 07:49:36;;;;;;;;;;;;;;;20.97;40.18;99975.21;105441;1300;67055;-88
2023/10/15 07:52:03;;;;;;;;;;;;;;;20.97;40.37;99973.67;105526;1300;67591;-89
2023/10/15 07:54:30;;;;;;;;;;;;;;;20.97;40.30;99970.75;105473;1300;67009;-89
2023/10/15 07:56:55;;;;;;;;;;;;;;;20.97;40.20;99964.98;105496;1300;67117;-88
2023/10/15 07:59:21;;;;;;;;;;;;;;;20.96;40.27;99960.48;105523;1300;68281;-88
2023/10/15 08:01:47;;;;;;;;;;;;;;;20.97;40.34;99962.31;105590;1298;82308;-89
2023/10/15 08:04:13;;;;;;;;;;;;;;;20.97;40.25;99961.45;105657;1296;67198;-89
2023/10/15 08:06:40;;;;;;;;;;;;;;;20.98;40.36;99961.65;105658;1299;66383;-89
2023/10/15 08:09:06;;;;;;;;;;;;;;;20.97;40.28;99959.66;105618;1299;66954;-89
2023/10/15 08:11:31;;;;;;;;;;;;;;;20.97;40.34;99957.71;105657;1300;67108;-89
2023/10/15 08:13:59;;;;;;;;;;;;;;;20.98;40.27;99955.51;105613;1297;67079;-89
2023/10/15 08:16:24;;;;;;;;;;;;;;;20.97;40.41;99950.96;105563;1300;66886;-88
2023/10/15 08:18:50;;;;;;;;;;;;;;;20.98;40.31;99944.10;105671;1298;66434;-88
2023/10/15 08:21:16;;;;;;;;;;;;;;;20.98;40.41;99947.38;105708;1296;67079;-89
2023/10/15 08:23:50;;;;;;;;;;;;;;;20.98;40.15;99943.02;105618;1291;68345;31
2023/10/15 08:26:15;;;;;;;;;;;;;;;20.99;40.32;99939.45;105464;1300;71630;-88
2023/10/15 08:28:41;;;;;;;;;;;;;;;20.99;40.21;99940.01;105534;1299;67103;-88
2023/10/15 08:31:07;;;;;;;;;;;;;;;20.99;40.24;99936.98;105502;1300;66440;-88
2023/10/15 08:33:33;;;;;;;;;;;;;;;21.00;40.25;99938.72;105548;1299;66330;-89
2023/10/15 08:36:02;;;;;;;;;;;;;;;21.00;40.25;99937.23;105698;1299;66372;-89
2023/10/15 08:41:43;;;;;;;;;;;;;;;21.00;40.36;99937.94;105588;1301;66295;-90
2023/10/15 08:44:12;;;;;;;;;;;;;;;21.01;40.27;99936.77;105518;1302;67087;-89
2023/10/15 08:46:39;;;;;;;;;;;;;;;21.02;40.27;99937.69;105666;1299;74566;-89
2023/10/15 08:49:08;;;;;;;;;;;;;;;21.02;40.10;99935.17;105558;1297;83218;-88
2023/10/15 08:51:34;;;;;;;;;;;;;;;21.02;40.26;99928.63;105832;1300;72458;-89
2023/10/15 08:54:00;;;;;;;;;;;;;;;21.04;40.28;99927.89;105723;1300;66367;-88
2023/10/15 08:58:56;;;;;;;;;;;;;;;21.04;40.33;99923.75;105824;1296;73824;-89
2023/10/15 09:01:21;;;;;;;;;;;;;;;21.05;40.21;99922.52;105806;1294;67757;-89
2023/10/15 09:03:47;;;;;;;;;;;;;;;21.05;40.35;99915.16;105834;1297;66479;-88
2023/10/15 09:06:14;;;;;;;;;;;;;;;21.05;40.21;99915.71;105634;1299;66316;-88
2023/10/15 09:08:41;;;;;;;;;;;;;;;21.06;40.36;99915.34;105555;1301;66348;-88
2023/10/15 09:11:07;;;;;;;;;;;;;;;21.07;40.14;99915.44;105584;1297;68340;-89
2023/10/15 09:13:36;;;;;;;;;;;;;;;21.06;40.18;99913.45;105635;1299;67037;-88
2023/10/15 09:16:03;;;;;;;;;;;;;;;21.07;40.20;99909.81;105693;1299;72527;-88
2023/10/15 09:18:35;;;;;;;;;;;;;;;21.08;40.19;99905.86;105556;1296;67331;-89
2023/10/15 09:21:03;;;;;;;;;;;;;;;21.08;40.25;99904.33;105592;1300;67135;-89
2023/10/15 09:23:37;;;;;;;;;;;;;;;21.08;40.30;99897.52;105530;1300;75483;-92
2023/10/15 09:26:04;;;;;;;;;;;;;;;21.08;40.34;99888.21;105547;1299;82197;-88
2023/10/15 09:28:30;;;;;;;;;;;;;;;21.09;40.24;99889.70;105500;1300;72520;-88
2023/10/15 09:31:05;;;;;;;;;;;;;;;21.09;40.32;99887.08;105637;1299;67491;-89
2023/10/15 09:33:36;;;;;;;;;;;;;;;21.10;40.37;99886.30;105484;1300;66350;-89
2023/10/15 09:36:02;;;;;;;;;;;;;;;21.11;40.36;99882.40;105551;1300;74451;-89
2023/10/15 09:38:33;;;;;;;;;;;;;;;21.11;40.14;99879.55;105483;1294;81003;-86
2023/10/15 09:41:00;;;;;;;;;;;;;;;21.12;40.06;99878.91;105353;1300;73748;-89
2023/10/15 09:43:26;;;;;;;;;;;;;;;21.12;40.31;99878.70;105563;1293;67204;-88
2023/10/15 09:45:55;;;;;;;;;;;;;;;21.14;40.11;99877.73;105586;1301;67106;-89
2023/10/15 09:48:24;;;;;;;;;;;;;;;21.14;40.07;99876.65;105567;1299;74500;-88
2023/10/15 09:50:51;;;;;;;;;;;;;;;21.15;40.30;99875.52;105591;1300;82203;-88
2023/10/15 09:55:46;;;;;;;;;;;;;;;21.16;40.27;99859.34;105676;1296;66847;-89
2023/10/15 09:58:12;;;;;;;;;;;;;;;21.18;40.10;99857.64;105714;1297;66500;-89
2023/10/15 10:03:38;;;;;;;;;;;;;;;21.20;40.23;99846.04;105638;1298;82737;-89
2023/10/15 10:06:17;;;;;;;;;;;;;;;21.21;40.14;99844.34;105726;1299;72321;-89
2023/10/15 10:09:04;;;;;;;;;;;;;;;21.22;40.04;99843.21;105439;1292;67074;-89
2023/10/15 10:11:38;;;;;;;;;;;;;;;21.23;40.18;99835.16;105645;1299;66632;-89
2023/10/15 10:14:37;;;;;;;;;;;;;;;21.24;40.13;99832.28;105561;1300;73475;-90
2023/10/15 10:17:02;;;;;;;;;;;;;;;21.24;40.20;99827.02;105587;1299;83358;-88
2023/10/15 10:19:29;;;;;;;;;;;;;;;21.25;40.17;99821.89;105546;1299;66474;-88
2023/10/15 10:21:55;;;;;;;;;;;;;;;21.25;40.24;99818.50;105507;1300;66891;-89
2023/10/15 10:24:23;;;;;;;;;;;;;;;21.25;40.19;99814.73;105459;1299;67597;-89
2023/10/15 10:26:55;;;;;;;;;;;;;;;21.25;40.08;99813.75;105544;1300;67068;-89
2023/10/15 10:29:26;;;;;;;;;;;;;;;21.26;40.06;99814.21;105507;1300;82321;-89
2023/10/15 10:34:35;;;;;;;;;;;;;;;21.26;40.13;99815.95;105473;1300;67072;-88
2023/10/15 10:37:01;;;;;;;;;;;;;;;21.26;40.03;99815.52;105533;1299;67076;-89
2023/10/15 10:39:42;;;;;;;;;;;;;;;21.27;40.16;99807.14;105515;1300;68321;-89
2023/10/15 10:42:08;;;;;;;;;;;;;;;21.27;39.99;99806.05;105512;1300;82234;-89
2023/10/15 10:44:34;;;;;;;;;;;;;;;21.27;40.05;99796.44;105594;1301;67144;-89
2023/10/15 10:49:41;;;;;;;;;;;;;;;21.28;40.05;99789.11;105329;1302;67026;-89
2023/10/15 10:52:14;;;;;;;;;;;;;;;21.28;40.08;99794.06;105523;1300;67051;-89
2023/10/15 10:54:39;;;;;;;;;;;;;;;21.28;40.02;99791.30;105545;1300;82052;-89
2023/10/15 10:57:07;;;;;;;;;;;;;;;21.28;39.93;99790.44;105606;1299;67065;-89
2023/10/15 10:59:32;;;;;;;;;;;;;;;21.29;40.05;99788.28;105561;1300;67066;-89
2023/10/15 11:04:33;;;;;;;;;;;;;;;21.29;40.12;99782.25;105578;1299;73828;-89
2023/10/15 11:06:58;;;;;;;;;;;;;;;21.30;39.99;99778.65;105531;1301;67183;-89
2023/10/15 11:09:25;;;;;;;;;;;;;;;21.31;39.97;99777.36;105552;1293;67245;-88
2023/10/15 11:11:55;;;;;;;;;;;;;;;21.30;40.04;99775.63;105505;1300;67089;-89
2023/10/15 11:14:23;;;;;;;;;;;;;;;21.30;40.08;99771.69;105687;1291;66671;-89
2023/10/15 11:16:49;;;;;;;;;;;;;;;21.30;40.02;99766.77;105467;1299;77250;-88
2023/10/15 11:19:21;;;;;;;;;;;;;;;21.32;40.02;99766.76;105525;1299;67052;-88
2023/10/15 11:21:48;;;;;;;;;;;;;;;21.31;40.09;99763.48;105583;1295;72630;-88
2023/10/15 11:24:14;;;;;;;;;;;;;;;21.32;39.94;99758.45;105503;1295;67185;-88
2023/10/15 11:26:44;;;;;;;;;;;;;;;21.32;39.98;99756.86;105609;1297;67156;-89
2023/10/15 11:29:10;;;;;;;;;;;;;;;21.33;39.91;99757.31;105532;1300;74554;-88
2023/10/15 11:31:36;;;;;;;;;;;;;;;21.33;39.82;99752.96;105486;1300;67038;-89
2023/10/15 11:34:02;;;;;;;;;;;;;;;21.33;39.93;99746.83;105671;1298;67138;-89
2023/10/15 11:36:34;;;;;;;;;;;;;;;21.34;39.99;99752.65;105518;1300;67907;-89
2023/10/15 11:39:01;;;;;;;;;;;;;;;21.34;40.00;99749.68;105520;1300;66964;-89
2023/10/15 11:41:29;;;;;;;;;;;;;;;21.34;39.93;99744.63;105505;1299;67412;-88
2023/10/15 11:46:23;;;;;;;;;;;;;;;21.35;39.80;99737.10;105555;1300;66607;-89
2023/10/15 11:48:49;;;;;;;;;;;;;;;21.35;39.81;99730.98;105639;1299;66531;-89
2023/10/15 11:51:14;;;;;;;;;;;;;;;21.36;39.90;99725.52;105576;1298;66918;-88
2023/10/15 11:53:41;;;;;;;;;;;;;;;21.36;40.05;99724.89;105684;1295;67021;-89
2023/10/15 12:01:26;;;;;;;;;;;;;;;21.38;39.94;99713.92;105521;1299;66846;-89
2023/10/15 12:03:55;;;;;;;;;;;;;;;21.38;39.81;99710.65;105607;1300;67115;-89
2023/10/15 12:06:21;;;;;;;;;;;;;;;21.38;39.76;99709.36;105617;1296;74332;-89
2023/10/15 12:08:48;;;;;;;;;;;;;;;21.39;39.70;99702.23;105509;1299;67657;-89
2023/10/15 12:11:14;;;;;;;;;;;;;;;21.39;39.67;99705.36;105536;1302;67082;-89
2023/10/15 12:13:41;;;;;;;;;;;;;;;21.40;39.89;99705.91;105458;1302;67100;-89
2023/10/15 12:16:17;;;;;;;;;;;;;;;21.40;39.71;99703.92;105612;1297;66877;-89
2023/10/15 12:18:43;;;;;;;;;;;;;;;21.40;39.78;99699.88;105701;1299;67029;-89
2023/10/15 12:21:09;;;;;;;;;;;;;;;21.41;39.72;99701.77;105508;1299;67220;-88
2023/10/15 12:23:35;;;;;;;;;;;;;;;21.41;39.70;99700.12;105563;1297;67079;-89
2023/10/15 12:26:01;;;;;;;;;;;;;;;21.41;39.68;99698.58;105612;1299;66874;-90
2023/10/15 12:28:27;;;;;;;;;;;;;;;21.42;39.62;99699.95;105593;1299;68030;-90
2023/10/15 12:30:54;;;;;;;;;;;;;;;21.43;39.77;99696.35;105569;1294;66949;-90
2023/10/15 12:33:20;;;;;;;;;;;;;;;21.43;39.75;99695.00;105519;1298;67902;-89
2023/10/15 12:35:47;;;;;;;;;;;;;;;21.43;39.77;99692.75;105541;1296;67309;-88
2023/10/15 12:38:26;;;;;;;;;;;;;;;21.44;39.77;99687.48;105633;1300;66885;-88
2023/10/15 12:40:52;;;;;;;;;;;;;;;21.44;39.65;99685.93;105557;1299;74330;-89
2023/10/15 12:43:17;;;;;;;;;;;;;;;21.44;39.60;99689.66;105661;1299;67660;-89
2023/10/15 12:45:44;;;;;;;;;;;;;;;21.45;39.61;99690.12;105652;1297;68278;-89
2023/10/15 12:48:10;;;;;;;;;;;;;;;21.45;39.75;99687.91;105699;1296;67208;-89
2023/10/15 12:50:36;;;;;;;;;;;;;;;21.46;39.59;99682.77;105522;1296;67777;-89
2023/10/15 12:53:02;;;;;;;;;;;;;;;21.46;39.61;99683.64;105574;1293;68271;-88
2023/10/15 12:55:27;;;;;;;;;;;;;;;21.47;39.58;99678.98;105432;1302;67243;-89
2023/10/15 12:57:53;;;;;;;;;;;;;;;21.48;39.67;99679.59;105456;1302;67059;-89
2023/10/15 13:00:26;;;;;;;;;;;;;;;21.48;39.60;99679.38;105458;1300;67111;-89
2023/10/15 13:02:53;;;;;;;;;;;;;;;21.48;39.57;99675.33;105715;1296;73747;-88
2023/10/15 13:05:22;;;;;;;;;;;;;;;21.49;39.60;99671.13;105556;1298;82601;-88
2023/10/15 13:07:53;;;;;;;;;;;;;;;21.50;39.42;99665.74;105657;1293;73418;-87
2023/10/15 13:10:19;;;;;;;;;;;;;;;21.51;39.40;99667.83;105563;1300;66826;-89
2023/10/15 13:12:50;;;;;;;;;;;;;;;21.51;39.58;99661.52;105621;1296;66883;-89
2023/10/15 13:15:18;;;;;;;;;;;;;;;21.52;39.59;99660.19;105597;1297;76580;-90
2023/10/15 13:17:47;;;;;;;;;;;;;;;21.52;39.56;99656.14;105540;1299;82088;-89
2023/10/15 13:20:13;;;;;;;;;;;;;;;21.53;39.54;99653.92;105562;1300;74350;-89
2023/10/15 13:22:48;;;;;;;;;;;;;;;21.53;39.57;99653.52;105631;1293;67069;31
2023/10/15 13:25:14;;;;;;;;;;;;;;;21.53;39.41;99651.98;105417;1300;66418;-90
2023/10/15 13:27:40;;;;;;;;;;;;;;;21.53;39.46;99649.89;105608;1296;67068;-88
2023/10/15 13:30:12;;;;;;;;;;;;;;;21.53;39.48;99642.52;105555;1296;68316;-88
2023/10/15 13:32:40;;;;;;;;;;;;;;;21.51;39.46;99639.32;105520;1299;72372;-88
2023/10/15 13:35:07;;;;;;;;;;;;;;;21.51;39.44;99640.35;105507;1301;68089;-89
2023/10/15 13:40:00;;;;;;;;;;;;;;;21.49;39.47;99638.22;105648;1302;66179;-89
2023/10/15 13:42:28;;;;;;;;;;;;;;;21.49;39.44;99629.77;105571;1299;66548;-89
2023/10/15 13:44:54;;;;;;;;;;;;;;;21.48;39.52;99628.15;105582;1297;72517;-89
2023/10/15 13:47:20;;;;;;;;;;;;;;;21.47;39.43;99627.08;105468;1298;67902;-89
2023/10/15 13:49:45;;;;;;;;;;;;;;;21.46;39.45;99626.69;105651;1291;67111;-88
2023/10/15 13:52:11;;;;;;;;;;;;;;;21.46;39.45;99622.14;105586;1300;66966;-89